Time;durP1;ratioP1;P1;durP2;ratioP2;P2;SDS_P1;SDS_P2;PMS_P1;PMS_P2;Temp;Humidity;BMP_temperature;BMP_pressure;BME280_temperature;BME280_humidity;BME280_pressure;Samples;Min_cycle;Max_cycle;Signal;HPM_P1;HPM_P2
2023/09/14 00:00:30;;;;;;;11.43;3.25;;;;;;;18.85;51.29;94113.72;5083169;28;20413;-78
2023/09/14 00:03:06;;;;;;;10.52;3.03;;;;;;;18.83;51.45;94116.00;5083279;28;20044;-79
2023/09/14 00:05:48;;;;;;;17.58;3.35;;;;;;;18.78;51.33;94113.53;5083232;28;20020;-86
2023/09/14 00:08:16;;;;;;;6.38;2.70;;;;;;;18.72;51.99;94114.97;5083478;28;20024;-86
2023/09/14 00:10:43;;;;;;;9.73;3.63;;;;;;;18.68;52.21;94122.22;5082957;28;20059;-84
2023/09/14 00:13:11;;;;;;;15.85;3.70;;;;;;;18.60;52.55;94115.91;5083346;28;20032;-84
2023/09/14 00:15:39;;;;;;;10.43;3.20;;;;;;;18.57;52.69;94116.63;5083169;28;20035;-82
2023/09/14 00:18:05;;;;;;;7.63;3.42;;;;;;;18.54;52.56;94122.75;5065123;28;20047;-84
2023/09/14 00:20:31;;;;;;;8.32;3.30;;;;;;;18.44;53.45;94121.41;5083234;28;20013;-82
2023/09/14 00:22:58;;;;;;;12.13;3.25;;;;;;;18.41;53.44;94127.50;5083053;28;20099;-83
2023/09/14 00:25:24;;;;;;;15.20;3.47;;;;;;;18.40;53.55;94125.97;5083060;28;20031;-83
2023/09/14 00:27:53;;;;;;;8.75;3.15;;;;;;;18.37;54.22;94121.28;5082883;28;20082;-85
2023/09/14 00:30:22;;;;;;;11.25;3.67;;;;;;;18.29;54.02;94133.06;5065209;28;20032;-84
2023/09/14 00:32:50;;;;;;;10.23;3.10;;;;;;;18.25;54.45;94133.75;5082999;28;20027;-84
2023/09/14 00:35:18;;;;;;;14.57;3.55;;;;;;;18.22;54.00;94129.06;5082852;28;20025;-84
2023/09/14 00:37:44;;;;;;;8.70;3.05;;;;;;;18.20;53.81;94127.88;5082991;28;20044;-84
2023/09/14 00:40:11;;;;;;;8.82;3.35;;;;;;;18.13;54.24;94127.72;5082474;28;20047;-83
2023/09/14 00:42:41;;;;;;;14.82;3.55;;;;;;;18.15;54.33;94126.22;5082941;28;20024;-83
2023/09/14 00:45:08;;;;;;;10.32;3.60;;;;;;;18.13;54.13;94127.72;5082814;28;20047;-83
2023/09/14 00:47:37;;;;;;;6.03;2.70;;;;;;;18.11;55.02;94130.75;5082825;28;20025;-84
2023/09/14 00:50:04;;;;;;;6.22;3.67;;;;;;;18.06;55.15;94122.97;5082781;28;20035;-83
2023/09/14 00:52:30;;;;;;;10.25;3.00;;;;;;;18.02;54.88;94124.81;5082850;28;20092;-83
2023/09/14 00:54:56;;;;;;;10.68;2.97;;;;;;;18.00;54.40;94116.28;5082804;28;20043;-84
2023/09/14 00:57:22;;;;;;;11.98;3.28;;;;;;;17.98;54.22;94124.72;5082668;28;20032;-84
2023/09/14 00:59:47;;;;;;;9.43;3.20;;;;;;;17.87;54.72;94112.94;5082617;28;20196;-84
2023/09/14 01:02:13;;;;;;;8.00;3.35;;;;;;;17.93;54.78;94124.22;5082702;28;20230;-84
2023/09/14 01:04:40;;;;;;;6.40;3.13;;;;;;;17.84;54.63;94130.59;5082659;28;20070;-84
2023/09/14 01:07:05;;;;;;;15.10;3.90;;;;;;;17.77;55.27;94124.25;5082605;28;20077;-83
2023/09/14 01:09:31;;;;;;;7.97;3.42;;;;;;;17.78;55.75;94128.50;5082455;28;20024;-83
2023/09/14 01:11:57;;;;;;;6.88;3.67;;;;;;;17.80;55.63;94113.53;5081354;28;20074;-84
2023/09/14 01:14:38;;;;;;;12.18;3.28;;;;;;;17.86;55.82;94116.00;5082647;28;20037;-84
2023/09/14 01:17:34;;;;;;;6.45;3.13;;;;;;;17.92;56.24;94112.66;5082372;28;20022;-85
2023/09/14 01:20:16;;;;;;;8.23;3.10;;;;;;;17.93;56.19;94119.63;5082744;28;20020;-83
2023/09/14 01:22:46;;;;;;;7.43;3.20;;;;;;;17.89;56.16;94112.56;5082615;28;20317;-84
2023/09/14 01:25:23;;;;;;;7.28;3.70;;;;;;;17.89;56.14;94112.56;5082394;28;20088;-84
2023/09/14 01:27:48;;;;;;;11.68;3.42;;;;;;;17.91;55.98;94113.00;5082684;28;20024;-84
2023/09/14 01:30:14;;;;;;;11.88;3.58;;;;;;;17.90;56.57;94104.13;5082563;28;20062;-84
2023/09/14 01:32:40;;;;;;;11.00;3.58;;;;;;;17.93;57.26;94118.81;5082479;28;20093;-83
2023/09/14 01:35:05;;;;;;;13.85;3.92;;;;;;;17.95;57.35;94121.94;5082235;28;20023;-83
2023/09/14 01:37:32;;;;;;;8.63;3.40;;;;;;;17.95;57.07;94125.44;5082320;28;20251;-84
2023/09/14 01:39:58;;;;;;;10.63;3.70;;;;;;;17.97;57.31;94130.47;5082458;28;20021;-84
2023/09/14 01:42:24;;;;;;;9.38;3.60;;;;;;;17.95;57.28;94124.66;5082134;28;20025;-83
2023/09/14 01:44:50;;;;;;;15.52;4.82;;;;;;;17.94;57.25;94131.19;5082410;28;20085;-84
2023/09/14 01:47:16;;;;;;;11.30;3.15;;;;;;;17.87;57.23;94125.63;5064233;28;20024;-84
2023/09/14 01:49:43;;;;;;;12.20;4.78;;;;;;;17.84;57.96;94127.13;5064263;28;20285;-83
2023/09/14 01:52:08;;;;;;;14.65;3.58;;;;;;;17.81;58.16;94125.13;5084954;28;20033;-84
2023/09/14 01:54:34;;;;;;;11.07;3.92;;;;;;;17.78;58.56;94123.09;5085739;28;20047;-83
2023/09/14 01:56:59;;;;;;;13.15;3.70;;;;;;;17.79;58.58;94125.47;5085791;28;20031;-83
2023/09/14 01:59:25;;;;;;;13.82;3.63;;;;;;;17.77;59.03;94122.34;5085657;28;20021;-83
2023/09/14 02:01:50;;;;;;;17.83;3.70;;;;;;;17.74;59.07;94133.81;5085446;28;20066;-84
2023/09/14 02:04:15;;;;;;;12.10;3.75;;;;;;;17.74;59.64;94128.41;5085575;28;20310;-84
2023/09/14 02:06:41;;;;;;;8.35;3.30;;;;;;;17.72;59.55;94136.06;5067852;28;20370;-84
2023/09/14 02:09:06;;;;;;;15.10;4.13;;;;;;;17.67;59.86;94128.28;5085398;28;20040;-84
2023/09/14 02:11:32;;;;;;;7.97;3.83;;;;;;;17.60;59.51;94133.47;5085326;28;20037;-85
2023/09/14 02:13:57;;;;;;;10.48;3.58;;;;;;;17.58;58.40;94130.34;5085590;28;20090;-84
2023/09/14 02:16:23;;;;;;;12.30;4.00;;;;;;;17.63;58.21;94127.41;5085382;28;20048;-84
2023/09/14 02:18:48;;;;;;;14.50;4.38;;;;;;;17.60;58.87;94125.41;5085166;28;20024;-84
2023/09/14 02:21:16;;;;;;;12.88;3.65;;;;;;;17.52;58.38;94137.16;5085342;28;20020;-83
2023/09/14 02:23:42;;;;;;;9.80;3.33;;;;;;;17.52;59.07;94137.16;5085243;28;20025;-84
2023/09/14 02:26:07;;;;;;;13.85;3.63;;;;;;;17.49;58.94;94137.88;5085245;28;20048;-85
2023/09/14 02:28:33;;;;;;;8.07;3.40;;;;;;;17.47;58.66;94135.50;5085096;28;20257;-83
2023/09/14 02:30:58;;;;;;;13.20;3.55;;;;;;;17.45;59.28;94130.47;5067263;28;20055;-83
2023/09/14 02:33:24;;;;;;;15.02;3.60;;;;;;;17.40;59.33;94141.53;5085067;28;20024;-83
2023/09/14 02:35:50;;;;;;;6.68;3.05;;;;;;;17.35;59.57;94133.69;5067207;28;20033;-84
2023/09/14 02:38:16;;;;;;;9.57;3.83;;;;;;;17.34;59.92;94126.75;5084833;28;20088;-84
2023/09/14 02:40:42;;;;;;;15.45;5.15;;;;;;;17.32;59.67;94131.72;5085137;28;20338;-85
2023/09/14 02:43:07;;;;;;;15.95;3.88;;;;;;;17.36;60.53;94132.56;5084963;28;20028;-85
2023/09/14 02:45:32;;;;;;;6.18;3.47;;;;;;;17.33;60.69;94122.47;5084837;28;20051;-85
2023/09/14 02:47:58;;;;;;;13.43;3.60;;;;;;;17.33;60.42;94119.78;5084834;28;20021;-85
2023/09/14 02:50:23;;;;;;;10.63;3.72;;;;;;;17.32;60.51;94120.13;5084866;28;20035;-85
2023/09/14 02:52:49;;;;;;;16.85;3.67;;;;;;;17.36;60.31;94112.91;5084702;28;20040;-85
2023/09/14 02:55:14;;;;;;;9.55;3.25;;;;;;;17.34;60.52;94109.78;5066730;28;20336;-85
2023/09/14 02:57:40;;;;;;;13.50;3.65;;;;;;;17.29;60.69;94105.47;5066863;28;20070;-85
2023/09/14 03:00:07;;;;;;;16.20;3.42;;;;;;;17.29;60.54;94113.53;5084656;28;20084;-84
2023/09/14 03:02:33;;;;;;;9.63;3.35;;;;;;;17.35;60.25;94111.38;5083990;28;20200;-82
2023/09/14 03:04:59;;;;;;;13.90;3.60;;;;;;;17.35;59.81;94112.13;5084478;28;20028;-82
2023/09/14 03:07:24;;;;;;;10.73;3.53;;;;;;;17.36;60.00;94107.53;5066631;28;20334;-83
2023/09/14 03:09:50;;;;;;;6.68;3.67;;;;;;;17.38;60.50;94114.16;5084164;28;20028;-83
2023/09/14 03:12:15;;;;;;;16.10;4.03;;;;;;;17.34;60.41;94121.38;5084079;28;20036;-83
2023/09/14 03:14:41;;;;;;;12.00;4.57;;;;;;;17.35;61.14;94122.91;5084107;28;20087;-83
2023/09/14 03:17:06;;;;;;;11.85;3.75;;;;;;;17.35;60.97;94112.13;5084097;28;20024;-83
2023/09/14 03:19:32;;;;;;;12.73;4.07;;;;;;;17.35;61.08;94112.13;5084188;28;20035;-83
2023/09/14 03:21:57;;;;;;;12.43;3.67;;;;;;;17.34;61.26;94124.06;5084390;28;20046;-83
2023/09/14 03:24:22;;;;;;;13.52;3.70;;;;;;;17.29;61.24;94126.22;5083988;28;20024;-83
2023/09/14 03:26:48;;;;;;;12.32;3.45;;;;;;;17.33;61.03;94127.88;5084054;28;20104;-83
2023/09/14 03:29:13;;;;;;;17.92;3.72;;;;;;;17.29;60.70;94127.00;5083788;28;20221;-83
2023/09/14 03:31:39;;;;;;;11.27;4.05;;;;;;;17.29;60.76;94124.31;5083729;28;20028;-83
2023/09/14 03:34:05;;;;;;;9.38;3.70;;;;;;;17.24;61.23;94124.59;5083871;28;20052;-83
2023/09/14 03:36:31;;;;;;;7.93;3.90;;;;;;;17.27;60.97;94121.19;5083919;28;20024;-84
2023/09/14 03:38:56;;;;;;;13.13;4.10;;;;;;;17.30;60.95;94119.69;5083700;28;20329;-83
2023/09/14 03:41:21;;;;;;;10.73;3.65;;;;;;;17.35;61.18;94117.53;5065743;28;20074;-84
2023/09/14 03:43:47;;;;;;;12.40;4.97;;;;;;;17.31;61.34;94119.34;5065818;28;20028;-83
2023/09/14 03:46:14;;;;;;;13.88;3.40;;;;;;;17.31;60.67;94132.81;5083601;28;20090;-83
2023/09/14 03:48:42;;;;;;;10.38;3.88;;;;;;;17.33;59.47;94125.19;5065578;28;20024;-83
2023/09/14 03:51:07;;;;;;;11.82;3.50;;;;;;;17.39;59.13;94123.78;5083336;28;20086;-83
2023/09/14 03:53:33;;;;;;;9.48;4.15;;;;;;;17.42;59.23;94133.88;5083463;28;20063;-82
2023/09/14 03:55:59;;;;;;;11.73;4.28;;;;;;;17.39;60.12;94129.16;5083581;28;20031;-85
2023/09/14 03:58:25;;;;;;;16.55;5.07;;;;;;;17.40;60.38;94121.88;5083368;28;20088;-83
2023/09/14 04:00:51;;;;;;;22.58;10.80;;;;;;;17.37;60.95;94126.03;5083320;28;20020;-84
2023/09/14 04:03:17;;;;;;;23.00;7.30;;;;;;;17.36;61.40;94137.97;5065561;28;20100;-84
2023/09/14 04:05:43;;;;;;;18.17;7.57;;;;;;;17.30;61.48;94130.47;5083216;28;20028;-84
2023/09/14 04:08:09;;;;;;;11.18;4.47;;;;;;;17.26;61.91;94133.09;5083122;28;20106;-84
2023/09/14 04:10:38;;;;;;;14.40;6.18;;;;;;;17.23;62.19;94141.88;5065249;28;20040;-84
2023/09/14 04:13:35;;;;;;;11.65;6.32;;;;;;;17.26;62.22;94138.50;5082669;28;20024;-83
2023/09/14 04:16:05;;;;;;;14.05;4.50;;;;;;;17.21;61.29;94138.75;5083430;28;20088;-83
2023/09/14 04:18:36;;;;;;;10.77;4.43;;;;;;;17.23;61.63;94155.34;5083399;28;20353;-81
2023/09/14 04:21:03;;;;;;;20.48;4.30;;;;;;;17.25;61.65;94139.59;5083001;28;20319;-84
2023/09/14 04:23:28;;;;;;;14.40;4.45;;;;;;;17.28;61.48;94149.69;5083335;28;20031;-84
2023/09/14 04:25:53;;;;;;;16.17;4.07;;;;;;;17.28;61.18;94140.81;5083133;28;20293;-84
2023/09/14 04:28:21;;;;;;;11.23;4.00;;;;;;;17.25;60.77;94145.00;5083002;28;20209;-85
2023/09/14 04:30:57;;;;;;;14.00;4.18;;;;;;;17.23;61.18;94141.88;5082956;28;20031;-84
2023/09/14 04:33:23;;;;;;;17.77;4.90;;;;;;;17.24;61.52;94149.59;5082924;28;20032;-85
2023/09/14 04:35:55;;;;;;;14.02;3.75;;;;;;;17.27;61.91;94150.03;5065056;28;20047;-85
2023/09/14 04:38:20;;;;;;;18.40;4.15;;;;;;;17.26;62.26;94151.97;5065186;28;20024;-84
2023/09/14 04:40:47;;;;;;;13.73;3.83;;;;;;;17.33;60.96;94154.81;5065160;28;20055;-84
2023/09/14 04:43:15;;;;;;;8.48;3.83;;;;;;;17.37;60.71;94147.59;5082988;28;20040;-83
2023/09/14 04:45:40;;;;;;;23.45;4.20;;;;;;;17.35;60.87;94155.25;5082959;28;20253;-85
2023/09/14 04:48:06;;;;;;;20.60;4.50;;;;;;;17.37;60.77;94152.22;5064916;28;20062;-84
2023/09/14 04:50:35;;;;;;;16.45;4.40;;;;;;;17.42;60.95;94149.25;5082913;28;20017;-85
2023/09/14 04:53:00;;;;;;;16.98;4.53;;;;;;;17.51;61.47;94149.06;5082811;28;20195;-85
2023/09/14 04:55:26;;;;;;;9.05;3.53;;;;;;;17.59;60.80;94154.28;5082681;28;20027;-84
2023/09/14 04:57:52;;;;;;;12.15;4.63;;;;;;;17.69;59.55;94144.88;5082675;28;20051;-82
2023/09/14 05:00:17;;;;;;;14.07;3.45;;;;;;;17.76;59.13;94157.72;5082654;28;20025;-84
2023/09/14 05:02:43;;;;;;;16.25;3.83;;;;;;;17.82;59.44;94154.41;5082568;28;20314;-84
2023/09/14 05:05:09;;;;;;;10.13;3.28;;;;;;;17.94;58.34;94160.84;5082851;28;20265;-84
2023/09/14 05:07:34;;;;;;;9.75;3.28;;;;;;;18.00;58.02;94157.53;5082552;28;20215;-83
2023/09/14 05:10:00;;;;;;;20.15;4.90;;;;;;;18.08;59.15;94157.69;5082661;28;20020;-85
2023/09/14 05:12:25;;;;;;;15.55;4.50;;;;;;;18.16;59.83;94164.78;5082720;28;20334;-83
2023/09/14 05:14:51;;;;;;;18.25;4.25;;;;;;;18.13;59.13;94160.88;5082546;28;20085;-83
2023/09/14 05:17:16;;;;;;;8.45;3.58;;;;;;;18.15;59.22;94166.69;5082644;28;20088;-83
2023/09/14 05:19:42;;;;;;;16.27;4.60;;;;;;;18.21;58.50;94165.28;5064359;28;20028;-84
2023/09/14 05:22:11;;;;;;;15.82;5.03;;;;;;;18.30;57.45;94170.47;5064457;28;20031;-83
2023/09/14 05:24:40;;;;;;;17.70;4.80;;;;;;;18.37;56.38;94167.13;5083125;28;20020;-83
2023/09/14 05:27:06;;;;;;;13.32;5.10;;;;;;;18.45;56.99;94166.16;5068306;28;20024;-84
2023/09/14 05:29:32;;;;;;;20.25;5.75;;;;;;;18.48;56.45;94157.34;5086196;28;20337;-83
2023/09/14 05:31:57;;;;;;;33.45;5.32;;;;;;;18.56;56.27;94159.06;5068646;28;20100;-84
2023/09/14 05:34:23;;;;;;;17.60;5.40;;;;;;;18.63;56.53;94161.88;5085917;28;20028;-83
2023/09/14 05:36:52;;;;;;;47.40;6.38;;;;;;;18.68;56.63;94158.09;5085648;28;20027;-82
2023/09/14 05:39:18;;;;;;;26.02;6.45;;;;;;;18.76;55.95;94156.31;5086011;28;20051;-82
2023/09/14 05:41:46;;;;;;;21.65;6.72;;;;;;;18.80;55.73;94157.19;5085926;28;20024;-84
2023/09/14 05:44:12;;;;;;;28.42;6.40;;;;;;;18.83;55.61;94161.91;5085559;28;20020;-77
2023/09/14 05:46:38;;;;;;;28.50;5.45;;;;;;;18.93;56.34;94161.31;5085671;28;20043;-76
2023/09/14 05:49:04;;;;;;;25.30;6.18;;;;;;;19.02;54.99;94161.06;5085508;28;20025;-77
2023/09/14 05:51:30;;;;;;;15.65;5.20;;;;;;;19.09;55.68;94161.22;5085814;28;20062;-80
2023/09/14 05:53:55;;;;;;;29.15;5.80;;;;;;;19.18;55.79;94169.06;5067659;28;20020;-80
2023/09/14 05:56:22;;;;;;;39.83;6.05;;;;;;;19.20;55.41;94169.50;5085798;28;20021;-78
2023/09/14 05:58:48;;;;;;;28.35;5.78;;;;;;;19.26;54.63;94169.97;5085490;28;20066;-79
2023/09/14 06:01:14;;;;;;;40.15;6.57;;;;;;;19.30;54.66;94174.28;5085246;28;20095;-78
2023/09/14 06:03:40;;;;;;;24.60;5.68;;;;;;;19.30;54.56;94177.00;5085464;28;20020;-77
2023/09/14 06:06:05;;;;;;;39.08;6.35;;;;;;;19.26;54.71;94170.75;5085516;28;20192;-77
2023/09/14 06:08:30;;;;;;;26.63;5.35;;;;;;;19.32;54.77;94166.59;5085507;28;20028;-77
2023/09/14 06:10:58;;;;;;;26.30;6.72;;;;;;;19.42;55.12;94163.31;5085208;28;20028;-78
2023/09/14 06:13:24;;;;;;;25.60;6.55;;;;;;;19.57;54.51;94167.00;5085444;28;20052;-79
2023/09/14 06:15:49;;;;;;;22.33;6.43;;;;;;;19.64;54.10;94155.50;5084055;28;20039;-79
2023/09/14 06:18:15;;;;;;;31.05;5.60;;;;;;;19.72;53.66;94151.81;5084677;28;20032;-79
2023/09/14 06:20:41;;;;;;;25.83;5.93;;;;;;;19.82;53.50;94148.50;5083988;28;20082;-77
2023/09/14 06:23:06;;;;;;;38.80;6.95;;;;;;;19.93;54.05;94153.28;5083911;28;20039;-77
2023/09/14 06:25:32;;;;;;;33.95;8.18;;;;;;;19.98;53.36;94158.34;5084186;28;20027;-78
2023/09/14 06:27:57;;;;;;;24.98;6.35;;;;;;;20.05;53.57;94161.19;5084062;28;20020;-77
2023/09/14 06:30:23;;;;;;;36.03;6.18;;;;;;;20.13;53.06;94165.53;5066023;28;20027;-78
2023/09/14 06:32:48;;;;;;;20.67;6.20;;;;;;;20.15;52.34;94174.06;5084038;28;20046;-78
2023/09/14 06:35:13;;;;;;;42.08;6.50;;;;;;;20.17;53.32;94174.47;5085364;28;20095;-78
2023/09/14 06:37:39;;;;;;;29.33;6.18;;;;;;;20.12;52.10;94172.09;5066152;28;20317;-77
2023/09/14 06:40:08;;;;;;;29.30;6.75;;;;;;;20.17;52.46;94179.09;5084700;28;20027;-78
2023/09/14 06:42:34;;;;;;;36.63;5.93;;;;;;;20.13;52.72;94184.47;5084908;28;20020;-78
2023/09/14 06:45:00;;;;;;;25.27;5.20;;;;;;;20.19;52.91;94182.22;5084902;28;20200;-78
2023/09/14 06:47:25;;;;;;;34.72;6.63;;;;;;;20.21;53.14;94188.84;5084598;28;20020;-79
2023/09/14 06:49:51;;;;;;;26.60;5.60;;;;;;;20.26;52.91;94186.97;5066750;28;20043;-78
2023/09/14 06:52:16;;;;;;;38.90;5.90;;;;;;;20.35;53.05;94190.97;5084465;28;20302;-78
2023/09/14 06:54:42;;;;;;;31.35;6.28;;;;;;;20.50;52.67;94191.91;5084381;28;20028;-79
2023/09/14 06:57:07;;;;;;;25.33;5.78;;;;;;;20.64;51.67;94194.81;5084133;28;20099;-78
2023/09/14 06:59:33;;;;;;;19.13;6.57;;;;;;;20.70;51.31;94194.47;5066502;28;20024;-79
2023/09/14 07:01:59;;;;;;;22.38;5.13;;;;;;;20.86;51.72;94191.56;5084419;28;20032;-78
2023/09/14 07:04:24;;;;;;;37.40;6.25;;;;;;;21.01;51.07;94188.66;5084138;28;20051;-78
2023/09/14 07:06:50;;;;;;;33.70;5.93;;;;;;;21.12;50.41;94194.19;5084276;28;20211;-81
2023/09/14 07:09:15;;;;;;;24.83;6.47;;;;;;;21.24;49.83;94201.28;5084104;28;20322;-85
2023/09/14 07:11:41;;;;;;;22.85;5.70;;;;;;;21.24;49.76;94202.03;5084010;28;20046;-79
2023/09/14 07:14:08;;;;;;;23.15;5.43;;;;;;;21.33;49.19;94188.19;5083774;28;20020;-79
2023/09/14 07:16:34;;;;;;;31.70;6.40;;;;;;;21.42;49.31;94198.72;5082135;28;20058;-80
2023/09/14 07:19:00;;;;;;;26.95;6.32;;;;;;;21.45;49.39;94200.72;5084282;28;20091;-80
2023/09/14 07:21:26;;;;;;;26.95;5.57;;;;;;;21.55;48.52;94200.03;5066011;28;20107;-79
2023/09/14 07:23:52;;;;;;;29.48;5.90;;;;;;;21.57;48.53;94202.38;5066016;28;20033;-79
2023/09/14 07:26:17;;;;;;;27.05;6.85;;;;;;;21.64;48.38;94203.22;5083752;28;20016;-79
2023/09/14 07:28:43;;;;;;;23.55;5.85;;;;;;;21.64;48.55;94195.06;5083910;28;20016;-79
2023/09/14 07:31:08;;;;;;;23.55;5.68;;;;;;;21.71;48.55;94191.63;5083536;28;20009;-79
2023/09/14 07:33:33;;;;;;;24.15;6.85;;;;;;;21.76;47.89;94202.16;5083610;28;20077;-79
2023/09/14 07:35:59;;;;;;;26.00;6.13;;;;;;;21.77;47.29;94209.13;5083812;28;20020;-79
2023/09/14 07:38:25;;;;;;;17.15;5.40;;;;;;;21.81;47.20;94203.72;5084696;28;20241;-79
2023/09/14 07:40:51;;;;;;;33.28;6.50;;;;;;;21.84;47.09;94211.91;5083588;28;20035;-79
2023/09/14 07:43:16;;;;;;;34.72;6.45;;;;;;;21.81;47.40;94211.88;5083522;28;20195;-80
2023/09/14 07:45:43;;;;;;;37.05;6.63;;;;;;;21.82;48.01;94208.78;5083641;28;20027;-79
2023/09/14 07:48:09;;;;;;;34.72;6.45;;;;;;;21.92;47.82;94206.50;5083253;28;20028;-76
2023/09/14 07:50:38;;;;;;;18.83;6.78;;;;;;;21.91;47.26;94215.81;5083403;28;20025;-76
2023/09/14 07:53:03;;;;;;;31.63;7.47;;;;;;;22.00;47.33;94213.53;5083207;28;20028;-76
2023/09/14 07:55:29;;;;;;;17.02;6.07;;;;;;;22.08;46.87;94215.16;5083507;28;20029;-76
2023/09/14 07:57:55;;;;;;;23.65;7.13;;;;;;;22.15;46.83;94217.94;5083343;28;20020;-77
2023/09/14 08:00:20;;;;;;;19.25;6.20;;;;;;;22.19;46.36;94215.25;5065279;28;20103;-78
2023/09/14 08:02:46;;;;;;;26.10;7.40;;;;;;;22.19;45.86;94212.53;5083220;28;20020;-80
2023/09/14 08:05:11;;;;;;;28.40;5.97;;;;;;;22.28;46.01;94206.78;5083113;28;20199;-76
2023/09/14 08:07:37;;;;;;;26.50;6.55;;;;;;;22.32;45.65;94199.44;5083247;28;20274;-76
2023/09/14 08:10:02;;;;;;;16.25;6.30;;;;;;;22.34;45.82;94205.28;5083215;28;20318;-76
2023/09/14 08:12:28;;;;;;;20.05;6.30;;;;;;;22.43;45.48;94197.56;5083091;28;20044;-77
2023/09/14 08:14:53;;;;;;;15.05;6.40;;;;;;;22.54;45.48;94195.66;5082982;28;20063;-76
2023/09/14 08:17:19;;;;;;;29.27;8.13;;;;;;;22.70;45.00;94194.59;5082977;28;20044;-76
2023/09/14 08:19:44;;;;;;;18.23;7.20;;;;;;;22.84;44.66;94189.97;5065157;28;20023;-77
2023/09/14 08:22:10;;;;;;;23.42;5.90;;;;;;;22.96;44.81;94193.50;5082931;28;20311;-76
2023/09/14 08:24:35;;;;;;;15.20;6.22;;;;;;;23.05;44.57;94187.75;5082898;28;20024;-76
2023/09/14 08:27:01;;;;;;;18.52;5.75;;;;;;;23.26;44.05;94184.28;5065345;28;20046;-76
2023/09/14 08:29:26;;;;;;;22.83;6.30;;;;;;;23.42;43.30;94190.91;5082799;28;20020;-76
2023/09/14 08:31:52;;;;;;;26.85;7.18;;;;;;;23.61;44.03;94189.78;5082745;28;20024;-77
2023/09/14 08:34:17;;;;;;;16.20;6.88;;;;;;;23.80;43.76;94188.63;5083063;28;20016;-75
2023/09/14 08:36:43;;;;;;;24.20;6.85;;;;;;;23.97;42.74;94189.00;5082927;28;20365;-77
2023/09/14 08:39:08;;;;;;;24.65;6.28;;;;;;;24.16;42.68;94185.88;5065089;28;20016;-76
2023/09/14 08:41:37;;;;;;;37.47;6.75;;;;;;;24.32;42.09;94179.22;5082780;28;20360;-77
2023/09/14 08:44:04;;;;;;;19.40;6.45;;;;;;;24.51;41.34;94180.75;5065020;28;20020;-76
2023/09/14 08:46:32;;;;;;;27.67;6.15;;;;;;;24.54;40.73;94179.97;5082691;28;20104;-76
2023/09/14 08:48:59;;;;;;;20.73;6.45;;;;;;;24.61;41.28;94175.25;5082749;28;20027;-76
2023/09/14 08:51:26;;;;;;;19.15;5.20;;;;;;;24.75;40.87;94168.19;5082543;28;20092;-78
2023/09/14 08:53:52;;;;;;;31.90;6.43;;;;;;;24.87;40.27;94180.59;5082363;28;20512;-77
2023/09/14 08:56:21;;;;;;;22.80;6.47;;;;;;;25.00;40.62;94168.84;5081970;28;20039;-77
2023/09/14 08:58:46;;;;;;;18.73;5.80;;;;;;;25.21;40.23;94162.53;5082194;28;20028;-76
2023/09/14 09:01:14;;;;;;;22.80;6.35;;;;;;;25.35;39.65;94156.19;5085549;28;20211;-80
2023/09/14 09:03:39;;;;;;;27.95;5.35;;;;;;;25.58;38.85;94155.63;5086620;28;20032;-79
2023/09/14 09:06:05;;;;;;;20.10;5.78;;;;;;;25.73;38.00;94158.28;5068686;28;20021;-79
2023/09/14 09:08:32;;;;;;;38.25;6.03;;;;;;;25.73;38.32;94155.53;5086837;28;20067;-78
2023/09/14 09:10:59;;;;;;;20.40;6.47;;;;;;;25.90;38.87;94149.16;5086587;28;20044;-78
2023/09/14 09:13:35;;;;;;;24.42;5.97;;;;;;;26.06;37.64;94145.13;5086199;28;20032;-78
2023/09/14 09:16:01;;;;;;;25.75;6.22;;;;;;;26.18;37.75;94139.91;5086516;28;20345;-79
2023/09/14 09:18:26;;;;;;;26.80;5.55;;;;;;;26.24;37.60;94134.78;5086221;28;20035;-78
2023/09/14 09:20:52;;;;;;;22.20;5.38;;;;;;;26.40;36.57;94134.22;5086035;28;20067;-78
2023/09/14 09:23:21;;;;;;;24.65;6.38;;;;;;;26.58;37.49;94129.38;5085063;28;20223;-78
2023/09/14 09:25:48;;;;;;;17.38;5.28;;;;;;;26.78;36.99;94128.72;5084966;28;20099;-78
2023/09/14 09:28:14;;;;;;;19.13;5.07;;;;;;;27.00;36.66;94115.53;5085942;28;20028;-78
2023/09/14 09:30:40;;;;;;;24.20;5.43;;;;;;;27.25;36.48;94122.63;5085979;28;20016;-78
2023/09/14 09:33:05;;;;;;;13.38;4.97;;;;;;;27.29;35.33;94121.38;5086083;28;20017;-78
2023/09/14 09:35:34;;;;;;;23.13;4.70;;;;;;;27.26;35.10;94119.47;5086151;28;20024;-78
2023/09/14 09:38:08;;;;;;;16.38;5.20;;;;;;;27.37;35.60;94122.81;5085965;28;20024;-77
2023/09/14 09:40:34;;;;;;;28.48;6.10;;;;;;;27.50;35.11;94122.22;5085746;28;20034;-76
2023/09/14 09:43:07;;;;;;;24.35;6.00;;;;;;;27.53;34.59;94116.72;5086059;28;20297;-78
2023/09/14 09:45:33;;;;;;;21.00;5.93;;;;;;;27.49;33.94;94123.44;5085628;28;20024;-76
2023/09/14 09:48:01;;;;;;;19.98;5.15;;;;;;;27.41;34.32;94128.25;5085771;28;20043;-77
2023/09/14 09:50:28;;;;;;;19.63;5.95;;;;;;;27.29;33.77;94132.31;5068013;28;20046;-77
2023/09/14 09:52:53;;;;;;;22.55;6.10;;;;;;;27.13;34.01;94126.66;5085344;28;20028;-78
2023/09/14 09:55:24;;;;;;;27.15;6.68;;;;;;;26.93;34.72;94121.13;5085925;28;20030;-77
2023/09/14 09:57:52;;;;;;;28.63;5.77;;;;;;;26.84;34.70;94129.03;5085564;28;20020;-78
2023/09/14 10:00:19;;;;;;;15.88;5.40;;;;;;;26.81;34.45;94130.63;5085327;28;20016;-78
2023/09/14 10:02:46;;;;;;;22.38;5.03;;;;;;;26.77;35.27;94122.47;5067592;28;20028;-79
2023/09/14 10:05:12;;;;;;;23.77;4.78;;;;;;;26.77;34.80;94127.19;5085470;28;20016;-78
2023/09/14 10:07:42;;;;;;;33.03;5.22;;;;;;;26.80;34.83;94118.91;5085383;28;20038;-78
2023/09/14 10:10:08;;;;;;;15.60;5.43;;;;;;;26.72;34.22;94122.16;5085195;28;20024;-77
2023/09/14 10:12:38;;;;;;;12.73;4.45;;;;;;;26.78;35.06;94120.50;5084126;28;20020;-77
2023/09/14 10:15:06;;;;;;;20.42;4.82;;;;;;;26.89;35.61;94115.69;5085363;28;20031;-77
2023/09/14 10:17:32;;;;;;;21.73;5.05;;;;;;;27.05;35.37;94111.56;5085258;28;20031;-77
2023/09/14 10:19:58;;;;;;;20.92;5.07;;;;;;;27.15;33.68;94114.16;5085148;28;20025;-77
2023/09/14 10:22:25;;;;;;;16.13;4.70;;;;;;;27.24;33.84;94102.72;5085256;28;20096;-77
2023/09/14 10:24:51;;;;;;;29.02;11.02;;;;;;;27.27;34.13;94101.88;5085091;28;20237;-78
2023/09/14 10:27:17;;;;;;;17.35;5.45;;;;;;;27.38;34.50;94090.78;5067383;28;20023;-78
2023/09/14 10:29:44;;;;;;;11.68;4.05;;;;;;;27.59;33.94;94089.63;5085026;28;20016;-78
2023/09/14 10:32:11;;;;;;;26.10;5.03;;;;;;;27.74;31.57;94085.47;5084997;28;20016;-79
2023/09/14 10:34:40;;;;;;;16.85;3.83;;;;;;;27.87;31.30;94087.63;5084821;28;20024;-78
2023/09/14 10:37:07;;;;;;;17.40;4.38;;;;;;;27.98;30.85;94085.47;5084894;28;20188;-79
2023/09/14 10:39:34;;;;;;;9.32;3.65;;;;;;;28.01;28.92;94084.63;5084835;28;20219;-78
2023/09/14 10:42:00;;;;;;;17.27;4.22;;;;;;;28.10;29.83;94084.09;5067013;28;20100;-79
2023/09/14 10:44:29;;;;;;;17.50;4.07;;;;;;;28.27;29.13;94076.69;5084835;28;20353;-88
2023/09/14 10:46:58;;;;;;;15.45;4.05;;;;;;;28.36;27.93;94080.44;5084798;28;20062;-76
2023/09/14 10:49:35;;;;;;;19.17;4.15;;;;;;;28.31;27.48;94067.22;5066708;28;20037;-76
2023/09/14 10:52:01;;;;;;;14.15;4.75;;;;;;;28.32;27.73;94074.25;5084808;28;20016;-82
2023/09/14 10:54:31;;;;;;;17.08;4.10;;;;;;;28.35;28.23;94064.41;5084487;28;20016;-83
2023/09/14 10:56:58;;;;;;;10.48;4.05;;;;;;;28.31;28.14;94067.22;5085256;28;20027;-89
2023/09/14 10:59:46;;;;;;;14.90;4.68;;;;;;;28.37;28.49;94071.03;5067568;28;20032;-89
2023/09/14 11:02:11;;;;;;;15.35;3.88;;;;;;;28.34;27.42;94065.63;5084415;28;20032;-89
2023/09/14 11:05:32;;;;;;;12.50;3.75;;;;;;;28.53;27.06;94062.09;5085256;28;20058;-90
2023/09/14 11:07:59;;;;;;;8.68;3.35;;;;;;;28.72;27.25;94057.78;5043634;28;20035;-91
2023/09/14 11:11:10;;;;;;;11.20;3.88;;;;;;;28.94;27.31;94058.09;5077001;28;20040;-92
2023/09/14 11:17:42;;;;;;;17.48;3.97;;;;;;;29.69;26.07;94049.28;4984812;28;20066;-93
2023/09/14 11:29:07;;;;;;;;;;;;;;;;;;;;;
2023/09/14 11:35:54;;;;;;;;;;;;;;;;;;;;;
2023/09/14 11:38:31;;;;;;;15.90;4.18;;;;;;;30.62;23.91;94024.00;4891732;29;20072;-93
2023/09/14 11:41:48;;;;;;;;;;;;;;;;;;;;;
2023/09/14 11:45:03;;;;;;;15.77;4.18;;;;;;;30.70;23.80;94039.09;5084475;28;20060;-93
2023/09/14 11:48:33;;;;;;;7.40;3.67;;;;;;;30.65;23.68;94034.13;5023389;28;20034;-92
2023/09/14 11:51:46;;;;;;;;;;;;;;;;;;;;;